createdAt,value
2022-08-08T00:00:54.070Z,99817.84
2022-08-08T00:02:42.934Z,99867.81
2022-08-08T00:05:21.750Z,99871.34
2022-08-08T00:08:16.915Z,99882.09
2022-08-08T00:10:52.746Z,99864.38
2022-08-08T00:14:17.527Z,99874.16
2022-08-08T00:16:26.267Z,99861.88
2022-08-08T00:19:03.099Z,99864.38
2022-08-08T00:21:39.386Z,99861.56
2022-08-08T00:24:19.298Z,99858.38
2022-08-08T00:26:58.857Z,99863.53
2022-08-08T00:29:44.215Z,99868.84
2022-08-08T00:32:35.157Z,99842.81
2022-08-08T00:35:28.345Z,99861.22
2022-08-08T00:38:31.393Z,99850.97
2022-08-08T00:41:55.338Z,99854.91
2022-08-08T00:44:47.896Z,99854.41
2022-08-08T00:48:05.360Z,99847.94
2022-08-08T00:51:19.800Z,99854.75
2022-08-08T00:54:34.251Z,99833.56
2022-08-08T00:57:40.958Z,99842.34
2022-08-08T01:00:19.398Z,99825.28
2022-08-08T01:04:00.777Z,99830.75
2022-08-08T01:06:57.347Z,99831.75
2022-08-08T01:10:15.850Z,99826.59
2022-08-08T01:13:44.015Z,99820.16
2022-08-08T01:16:49.304Z,99826.81
2022-08-08T01:20:18.543Z,99826.81
2022-08-08T01:24:03.311Z,99818.19
2022-08-08T01:26:24.022Z,99813.25
2022-08-08T01:29:24.900Z,99824.03
2022-08-08T01:32:44.008Z,99822.03
2022-08-08T01:35:40.616Z,99811.91
2022-08-08T01:39:05.623Z,99807.63
2022-08-08T01:41:52.540Z,99817.56
2022-08-08T01:44:38.920Z,99818.72
2022-08-08T01:48:14.798Z,99803.66
2022-08-08T01:50:21.122Z,99810.44
2022-08-08T01:55:14.771Z,99800.00
2022-08-08T01:56:30.052Z,99817.72
2022-08-08T01:59:10.377Z,99807.94
2022-08-08T02:02:05.391Z,99816.22
2022-08-08T02:04:52.272Z,99816.88
2022-08-08T02:07:27.874Z,99812.88
2022-08-08T02:10:37.117Z,99814.88
2022-08-08T02:13:52.544Z,99815.88
2022-08-08T02:16:29.371Z,99808.56
2022-08-08T02:19:26.995Z,99812.22
2022-08-08T02:22:17.607Z,99815.00
2022-08-08T02:24:51.992Z,99816.66
2022-08-08T02:27:42.157Z,99812.34
2022-08-08T02:30:24.873Z,99805.91
2022-08-08T02:33:14.604Z,99821.78
2022-08-08T02:36:03.517Z,99818.31
2022-08-08T02:38:55.949Z,99826.06
2022-08-08T02:42:10.570Z,99824.09
2022-08-08T02:45:03.722Z,99811.66
2022-08-08T02:48:10.785Z,99815.47
2022-08-08T02:51:30.170Z,99797.09
2022-08-08T02:54:41.295Z,99799.56
2022-08-08T02:57:45.766Z,99810.66
2022-08-08T03:00:50.664Z,99803.84
2022-08-08T03:05:02.764Z,99808.94
2022-08-08T03:07:21.291Z,99805.47
2022-08-08T03:10:44.049Z,99798.50
2022-08-08T03:15:57.088Z,99803.66
2022-08-08T03:16:43.396Z,99795.84
2022-08-08T03:19:25.531Z,99798.81
2022-08-08T03:21:59.816Z,99807.59
2022-08-08T03:24:31.823Z,99805.97
2022-08-08T03:27:11.347Z,99801.97
2022-08-08T03:29:56.088Z,99805.25
2022-08-08T03:32:47.602Z,99801.78
2022-08-08T03:35:30.192Z,99793.75
2022-08-08T03:38:56.152Z,99810.94
2022-08-08T03:40:56.903Z,99814.19
2022-08-08T03:43:31.440Z,99796.13
2022-08-08T03:46:08.865Z,99817.69
2022-08-08T03:49:09.883Z,99823.06
2022-08-08T03:51:40.460Z,99818.81
2022-08-08T03:54:41.459Z,99813.78
2022-08-08T03:58:33.740Z,99826.63
2022-08-08T04:00:08.133Z,99821.91
2022-08-08T04:02:54.870Z,99811.28
2022-08-08T04:05:28.400Z,99826.56
2022-08-08T04:08:06.214Z,99814.66
2022-08-08T04:10:37.624Z,99828.75
2022-08-08T04:13:18.101Z,99817.88
2022-08-08T04:16:03.361Z,99821.19
2022-08-08T04:18:44.886Z,99821.69
2022-08-08T04:21:23.059Z,99823.38
2022-08-08T04:24:11.560Z,99822.16
2022-08-08T04:26:57.219Z,99827.28
2022-08-08T04:29:33.201Z,99832.59
2022-08-08T04:32:07.412Z,99829.94
2022-08-08T04:34:55.257Z,99819.69
2022-08-08T04:37:32.200Z,99817.34
2022-08-08T04:40:10.525Z,99813.41
2022-08-08T04:42:57.406Z,99821.38
2022-08-08T04:45:47.989Z,99821.06
2022-08-08T04:48:21.889Z,99828.53
2022-08-08T04:50:51.438Z,99829.69
2022-08-08T04:54:37.056Z,99828.84
2022-08-08T04:56:17.146Z,99833.88
2022-08-08T04:58:49.555Z,99831.09
2022-08-08T05:01:22.003Z,99834.91
2022-08-08T05:04:10.876Z,99835.25
2022-08-08T05:06:43.772Z,99840.72
2022-08-08T05:09:13.569Z,99837.91
2022-08-08T05:11:47.740Z,99831.13
2022-08-08T05:14:26.297Z,99836.91
2022-08-08T05:17:08.801Z,99845.88
2022-08-08T05:20:11.422Z,99855.50
2022-08-08T05:22:35.921Z,99849.78
2022-08-08T05:25:06.226Z,99849.78
2022-08-08T05:27:44.179Z,99868.72
2022-08-08T05:30:15.093Z,99877.31
2022-08-08T05:32:50.234Z,99855.06
2022-08-08T05:35:24.769Z,99882.66
2022-08-08T05:38:04.708Z,99881.91
2022-08-08T05:40:58.198Z,99888.91
2022-08-08T05:44:02.181Z,99889.97
2022-08-08T05:46:24.523Z,99889.75
2022-08-08T05:48:55.760Z,99896.34
2022-08-08T05:51:48.150Z,99902.03
2022-08-08T05:54:27.001Z,99899.31
2022-08-08T05:57:36.729Z,99904.38
2022-08-08T06:00:22.872Z,99906.59
2022-08-08T06:03:17.396Z,99913.97
2022-08-08T06:06:01.183Z,99914.84
2022-08-08T06:08:35.937Z,99922.41
2022-08-08T06:11:10.955Z,99917.06
2022-08-08T06:13:47.809Z,99917.22
2022-08-08T06:16:24.998Z,99921.69
2022-08-08T06:19:24.073Z,99920.13
2022-08-08T06:21:57.280Z,99926.66
2022-08-08T06:24:37.578Z,99927.28
2022-08-08T06:27:12.389Z,99918.72
2022-08-08T06:30:00.951Z,99916.28
2022-08-08T06:32:47.844Z,99920.25
2022-08-08T06:36:04.490Z,99909.38
2022-08-08T06:38:14.545Z,99925.09
2022-08-08T06:40:54.244Z,99920.88
2022-08-08T06:43:34.435Z,99921.28
2022-08-08T06:46:23.823Z,99927.34
2022-08-08T06:48:54.812Z,99928.06
2022-08-08T06:51:23.983Z,99921.50
2022-08-08T06:54:03.214Z,99921.88
2022-08-08T06:56:37.921Z,99914.09
2022-08-08T06:59:09.965Z,99914.28
2022-08-08T07:02:27.468Z,99911.44
2022-08-08T07:04:51.263Z,99911.41
2022-08-08T07:07:28.284Z,99900.56
2022-08-08T07:10:08.252Z,99902.47
2022-08-08T07:12:47.864Z,99906.69
2022-08-08T07:16:03.635Z,99903.22
2022-08-08T07:18:35.807Z,99902.91
2022-08-08T07:21:09.976Z,99898.78
2022-08-08T07:24:01.527Z,99897.00
2022-08-08T07:26:43.078Z,99902.22
2022-08-08T07:29:20.645Z,99895.03
2022-08-08T07:32:08.562Z,99893.19
2022-08-08T07:34:48.363Z,99895.75
2022-08-08T07:37:27.985Z,99901.97
2022-08-08T07:40:28.741Z,99910.97
2022-08-08T07:43:02.400Z,99901.47
2022-08-08T07:45:34.632Z,99903.88
2022-08-08T07:48:20.614Z,99916.84
2022-08-08T07:50:55.103Z,99913.66
2022-08-08T07:54:01.870Z,99916.16
2022-08-08T07:56:36.901Z,99902.47
2022-08-08T07:59:14.744Z,99908.56
2022-08-08T08:02:36.219Z,99901.19
2022-08-08T08:04:52.104Z,99911.78
2022-08-08T08:07:26.228Z,99917.94
2022-08-08T08:10:05.100Z,99920.41
2022-08-08T08:12:42.262Z,99907.78
2022-08-08T08:15:21.690Z,99906.06
2022-08-08T08:17:59.297Z,99901.91
2022-08-08T08:20:30.988Z,99906.00
2022-08-08T08:23:03.538Z,99908.34
2022-08-08T08:25:42.792Z,99907.53
2022-08-08T08:28:21.211Z,99904.28
2022-08-08T08:30:56.350Z,99902.88
2022-08-08T08:33:28.446Z,99890.34
2022-08-08T08:36:19.663Z,99892.38
2022-08-08T08:38:49.295Z,99889.25
2022-08-08T08:41:23.834Z,99883.28
2022-08-08T08:44:13.232Z,99885.25
2022-08-08T08:46:45.631Z,99879.34
2022-08-08T08:49:20.401Z,99864.53
2022-08-08T08:51:58.077Z,99869.72
2022-08-08T08:54:34.123Z,99882.22
2022-08-08T08:57:15.797Z,99875.47
2022-08-08T09:00:00.002Z,99874.44
2022-08-08T09:02:41.220Z,99880.03
2022-08-08T09:05:14.023Z,99880.06
2022-08-08T09:08:18.402Z,99879.75
2022-08-08T09:10:51.083Z,99881.03
2022-08-08T09:13:23.790Z,99875.69
2022-08-08T09:16:03.965Z,99851.25
2022-08-08T09:18:39.378Z,99872.59
2022-08-08T09:21:58.983Z,99866.91
2022-08-08T09:23:58.654Z,99874.00
2022-08-08T09:26:39.807Z,99866.53
2022-08-08T09:29:22.611Z,99868.97
2022-08-08T09:31:57.618Z,99877.28
2022-08-08T09:34:37.798Z,99876.06
2022-08-08T09:37:57.519Z,99874.22
2022-08-08T09:40:10.839Z,99868.94
2022-08-08T09:42:44.449Z,99881.09
2022-08-08T09:45:55.343Z,99886.88
2022-08-08T09:48:21.106Z,99876.47
2022-08-08T09:50:55.042Z,99867.88
2022-08-08T09:53:32.922Z,99856.03
2022-08-08T09:56:21.708Z,99861.81
2022-08-08T09:58:58.622Z,99863.94
2022-08-08T10:01:59.711Z,99860.66
2022-08-08T10:04:38.363Z,99859.66
2022-08-08T10:07:15.910Z,99853.09
2022-08-08T10:10:00.277Z,99848.84
2022-08-08T10:12:52.961Z,99852.63
2022-08-08T10:15:25.166Z,99859.50
2022-08-08T10:18:09.071Z,99847.13
2022-08-08T10:20:58.099Z,99844.28
2022-08-08T10:23:45.842Z,99839.59
2022-08-08T10:26:40.620Z,99850.59
2022-08-08T10:29:21.089Z,99844.44
2022-08-08T10:32:15.957Z,99831.97
2022-08-08T10:34:58.490Z,99822.88
2022-08-08T10:37:30.641Z,99837.13
2022-08-08T10:40:06.919Z,99846.00
2022-08-08T10:42:37.760Z,99845.50
2022-08-08T10:45:16.071Z,99831.22
2022-08-08T10:47:48.510Z,99833.66
2022-08-08T10:50:25.035Z,99818.03
2022-08-08T10:53:03.618Z,99825.56
2022-08-08T10:55:46.515Z,99831.44
2022-08-08T10:58:16.005Z,99836.28
2022-08-08T11:00:53.352Z,99818.97
2022-08-08T11:04:00.667Z,99831.16
2022-08-08T11:06:34.269Z,99821.94
2022-08-08T11:09:09.717Z,99828.50
2022-08-08T11:12:06.555Z,99806.41
2022-08-08T11:14:36.395Z,99814.84
2022-08-08T11:17:06.752Z,99821.53
2022-08-08T11:19:46.554Z,99796.63
2022-08-08T11:22:26.884Z,99811.34
2022-08-08T11:24:58.516Z,99817.88
2022-08-08T11:27:37.311Z,99815.50
2022-08-08T11:30:24.643Z,99796.75
2022-08-08T11:32:58.440Z,99815.00
2022-08-08T11:35:38.490Z,99818.56
2022-08-08T11:38:39.585Z,99811.47
2022-08-08T11:41:04.695Z,99808.69
2022-08-08T11:43:39.233Z,99793.84
2022-08-08T11:46:14.246Z,99803.72
2022-08-08T11:48:48.804Z,99791.25
2022-08-08T11:51:30.487Z,99799.94
2022-08-08T11:54:27.430Z,99801.72
2022-08-08T11:56:58.155Z,99795.88
2022-08-08T12:00:00.613Z,99786.00
2022-08-08T12:02:33.708Z,99766.56
2022-08-08T12:05:04.169Z,99796.44
2022-08-08T12:07:35.569Z,99797.16
2022-08-08T12:10:12.487Z,99797.50
2022-08-08T12:12:45.932Z,99781.22
2022-08-08T12:15:29.486Z,99795.16
2022-08-08T12:18:00.074Z,99792.63
2022-08-08T12:20:38.902Z,99779.72
2022-08-08T12:23:13.902Z,99788.84
2022-08-08T12:25:55.163Z,99787.09
2022-08-08T12:28:25.544Z,99792.25
2022-08-08T12:31:07.122Z,99787.72
2022-08-08T12:34:02.066Z,99786.22
2022-08-08T12:36:40.690Z,99793.72
2022-08-08T12:39:15.470Z,99789.28
2022-08-08T12:42:01.604Z,99790.78
2022-08-08T12:44:33.335Z,99788.16
2022-08-08T12:47:08.130Z,99803.88
2022-08-08T12:49:45.042Z,99805.41
2022-08-08T12:52:28.716Z,99803.16
2022-08-08T12:55:13.274Z,99802.28
2022-08-08T12:57:49.802Z,99799.81
2022-08-08T13:00:34.016Z,99801.31
2022-08-08T13:03:09.170Z,99797.69
2022-08-08T13:06:04.275Z,99801.09
2022-08-08T13:08:33.282Z,99788.31
2022-08-08T13:11:05.538Z,99797.47
2022-08-08T13:13:37.655Z,99798.56
2022-08-08T13:16:20.221Z,99801.75
2022-08-08T13:18:57.590Z,99799.81
2022-08-08T13:21:49.249Z,99801.25
2022-08-08T13:24:38.531Z,99803.84
2022-08-08T13:27:12.406Z,99796.69
2022-08-08T13:29:50.780Z,99793.75
2022-08-08T13:32:20.987Z,99793.78
2022-08-08T13:34:55.610Z,99789.66
2022-08-08T13:37:28.016Z,99797.75
2022-08-08T13:40:17.557Z,99804.22
2022-08-08T13:42:56.390Z,99802.41
2022-08-08T13:45:26.521Z,99793.56
2022-08-08T13:47:59.861Z,99801.03
2022-08-08T13:50:43.189Z,99797.25
2022-08-08T13:53:27.541Z,99791.03
2022-08-08T13:56:01.396Z,99810.16
2022-08-08T13:58:31.309Z,99799.22
2022-08-08T14:01:13.771Z,99805.34
2022-08-08T14:03:54.940Z,99784.50
2022-08-08T14:06:34.126Z,99804.63
2022-08-08T14:09:25.364Z,99803.91
2022-08-08T14:11:54.409Z,99806.78
2022-08-08T14:14:26.970Z,99806.44
2022-08-08T14:16:57.455Z,99804.41
2022-08-08T14:19:58.202Z,99800.84
2022-08-08T14:22:27.312Z,99800.72
2022-08-08T14:24:59.961Z,99805.84
2022-08-08T14:27:30.374Z,99801.84
2022-08-08T14:30:17.096Z,99791.16
2022-08-08T14:32:53.229Z,99798.72
2022-08-08T14:35:35.058Z,99790.63
2022-08-08T14:38:33.093Z,99794.31
2022-08-08T14:40:59.218Z,99787.03
2022-08-08T14:44:01.748Z,99785.25
2022-08-08T14:46:19.319Z,99790.19
2022-08-08T14:49:02.662Z,99775.91
2022-08-08T14:51:51.732Z,99783.75
2022-08-08T14:54:29.267Z,99784.22
2022-08-08T14:56:58.553Z,99789.31
2022-08-08T14:59:44.413Z,99782.06
2022-08-08T15:02:31.237Z,99770.69
2022-08-08T15:05:10.656Z,99778.88
2022-08-08T15:07:41.372Z,99774.38
2022-08-08T15:10:13.147Z,99774.31
2022-08-08T15:12:42.120Z,99774.94
2022-08-08T15:15:11.701Z,99777.78
2022-08-08T15:17:49.547Z,99769.94
2022-08-08T15:20:19.655Z,99765.97
2022-08-08T15:22:48.659Z,99762.44
2022-08-08T15:25:21.152Z,99774.41
2022-08-08T15:28:32.561Z,99775.41
2022-08-08T15:30:48.719Z,99774.38
2022-08-08T15:33:20.915Z,99779.81
2022-08-08T15:36:03.750Z,99776.16
2022-08-08T15:38:32.300Z,99772.63
2022-08-08T15:41:02.439Z,99774.38
2022-08-08T15:43:35.644Z,99775.81
2022-08-08T15:46:05.309Z,99768.78
2022-08-08T15:48:33.803Z,99774.16
2022-08-08T15:51:07.273Z,99774.72
2022-08-08T15:53:49.100Z,99769.13
2022-08-08T15:56:20.430Z,99764.66
2022-08-08T15:58:50.238Z,99765.56
2022-08-08T16:01:20.902Z,99782.38
2022-08-08T16:03:51.903Z,99772.72
2022-08-08T16:06:27.665Z,99780.94
2022-08-08T16:09:02.238Z,99777.28
2022-08-08T16:13:09.457Z,99767.97
2022-08-08T16:14:37.831Z,99779.59
2022-08-08T16:17:06.819Z,99766.59
2022-08-08T16:19:57.161Z,99770.53
2022-08-08T16:22:38.981Z,99773.91
2022-08-08T16:25:11.460Z,99780.63
2022-08-08T16:27:45.447Z,99772.41
2022-08-08T16:30:36.200Z,99776.47
2022-08-08T16:33:05.788Z,99782.50
2022-08-08T16:35:34.721Z,99781.41
2022-08-08T16:38:03.209Z,99777.19
2022-08-08T16:40:32.829Z,99769.66
2022-08-08T16:43:03.073Z,99711.31
2022-08-08T16:46:44.378Z,99772.91
2022-08-08T16:48:20.689Z,99783.38
2022-08-08T16:50:52.585Z,99784.19
2022-08-08T16:55:03.982Z,99776.56
2022-08-08T16:56:14.071Z,99764.03
2022-08-08T16:58:45.892Z,99778.81
2022-08-08T17:01:17.982Z,99768.00
2022-08-08T17:03:58.511Z,99786.66
2022-08-08T17:06:36.465Z,99785.97
2022-08-08T17:09:07.132Z,99782.47
2022-08-08T17:11:50.861Z,99774.19
2022-08-08T17:14:27.624Z,99773.75
2022-08-08T17:17:03.726Z,99786.03
2022-08-08T17:19:40.862Z,99776.03
2022-08-08T17:22:10.423Z,99787.25
2022-08-08T17:24:39.304Z,99787.84
2022-08-08T17:27:08.350Z,99796.38
2022-08-08T17:29:43.642Z,99789.13
2022-08-08T17:32:29.073Z,99803.09
2022-08-08T17:35:54.526Z,99801.16
2022-08-08T17:37:53.345Z,99797.19
2022-08-08T17:40:22.740Z,99803.16
2022-08-08T17:42:52.253Z,99806.69
2022-08-08T17:45:23.958Z,99800.25
2022-08-08T17:47:54.862Z,99802.25
2022-08-08T17:50:25.007Z,99797.53
2022-08-08T17:52:54.096Z,99790.25
2022-08-08T17:56:05.012Z,99801.91
2022-08-08T17:58:14.949Z,99795.03
2022-08-08T18:00:47.414Z,99802.72
2022-08-08T18:03:25.988Z,99809.69
2022-08-08T18:05:54.607Z,99799.00
2022-08-08T18:08:37.536Z,99808.97
2022-08-08T18:11:15.504Z,99814.47
2022-08-08T18:13:47.162Z,99818.00
2022-08-08T18:16:22.916Z,99821.16
2022-08-08T18:18:55.978Z,99814.94
2022-08-08T18:22:00.430Z,99810.44
2022-08-08T18:24:19.569Z,99823.88
2022-08-08T18:26:54.828Z,99812.16
2022-08-08T18:29:33.868Z,99817.09
2022-08-08T18:32:06.819Z,99809.69
2022-08-08T18:34:36.439Z,99818.31
2022-08-08T18:37:08.433Z,99808.88
2022-08-08T18:39:41.178Z,99807.66
2022-08-08T18:42:15.861Z,99801.09
2022-08-08T18:44:55.498Z,99805.75
2022-08-08T18:47:27.487Z,99824.06
2022-08-08T18:50:00.272Z,99813.34
2022-08-08T18:52:30.347Z,99834.28
2022-08-08T18:55:10.654Z,99836.69
2022-08-08T18:57:44.526Z,99834.34
2022-08-08T19:00:19.507Z,99841.13
2022-08-08T19:02:55.930Z,99831.16
2022-08-08T19:05:32.144Z,99830.72
2022-08-08T19:08:25.339Z,99829.84
2022-08-08T19:10:59.242Z,99839.69
2022-08-08T19:13:38.497Z,99848.09
2022-08-08T19:16:19.468Z,99846.56
2022-08-08T19:19:01.924Z,99843.63
2022-08-08T19:21:33.348Z,99839.88
2022-08-08T19:24:39.147Z,99843.09
2022-08-08T19:27:05.914Z,99842.03
2022-08-08T19:29:40.687Z,99837.63
2022-08-08T19:32:12.996Z,99846.59
2022-08-08T19:34:51.488Z,99855.94
2022-08-08T19:37:43.010Z,99858.72
2022-08-08T19:40:16.144Z,99865.75
2022-08-08T19:42:45.652Z,99856.22
2022-08-08T19:45:59.958Z,99864.94
2022-08-08T19:48:03.609Z,99850.03
2022-08-08T19:50:34.421Z,99869.94
2022-08-08T19:53:02.907Z,99871.34
2022-08-08T19:55:51.626Z,99869.81
2022-08-08T19:58:20.231Z,99868.34
2022-08-08T20:00:53.162Z,99872.38
2022-08-08T20:04:00.880Z,99871.47
2022-08-08T20:06:16.401Z,99867.16
2022-08-08T20:08:48.271Z,99846.25
2022-08-08T20:11:18.775Z,99839.63
2022-08-08T20:14:34.698Z,99886.34
2022-08-08T20:16:40.389Z,99882.09
2022-08-08T20:19:09.594Z,99886.53
2022-08-08T20:21:40.294Z,99889.75
2022-08-08T20:24:09.155Z,99875.78
2022-08-08T20:26:41.590Z,99849.81
2022-08-08T20:29:15.544Z,99833.13
2022-08-08T20:32:02.725Z,99896.78
2022-08-08T20:34:33.017Z,99901.69
2022-08-08T20:37:07.413Z,99896.38
2022-08-08T20:39:41.274Z,99908.06
2022-08-08T20:42:23.663Z,99910.03
2022-08-08T20:44:57.844Z,99916.19
2022-08-08T20:47:26.842Z,99919.75
2022-08-08T20:50:06.253Z,99919.53
2022-08-08T20:52:40.879Z,99930.16
2022-08-08T20:55:25.562Z,99920.31
2022-08-08T20:57:57.965Z,99927.53
2022-08-08T21:00:26.792Z,99935.03
2022-08-08T21:02:55.597Z,99939.38
2022-08-08T21:05:24.250Z,99934.28
2022-08-08T21:08:33.575Z,99946.25
2022-08-08T21:10:50.898Z,99945.28
2022-08-08T21:13:19.426Z,99954.38
2022-08-08T21:16:05.809Z,99950.59
2022-08-08T21:18:36.551Z,99947.31
2022-08-08T21:21:20.759Z,99956.28
2022-08-08T21:24:13.027Z,99937.09
2022-08-08T21:26:54.357Z,99928.59
2022-08-08T21:30:05.389Z,99920.31
2022-08-08T21:32:14.108Z,99924.63
2022-08-08T21:34:49.690Z,99958.41
2022-08-08T21:37:19.144Z,99921.56
2022-08-08T21:39:56.815Z,99957.66
2022-08-08T21:42:25.774Z,99946.06
2022-08-08T21:44:58.868Z,99963.47
2022-08-08T21:48:07.426Z,99950.53
2022-08-08T21:50:18.607Z,99952.19
2022-08-08T21:54:33.711Z,99942.59
2022-08-08T21:56:20.043Z,99955.84
2022-08-08T21:58:32.194Z,99937.00
2022-08-08T22:01:06.113Z,99930.22
2022-08-08T22:03:53.307Z,99944.19
2022-08-08T22:06:30.998Z,99922.19
2022-08-08T22:09:02.729Z,99946.88
2022-08-08T22:11:59.465Z,99936.13
2022-08-08T22:14:28.983Z,99987.47
2022-08-08T22:17:01.085Z,99966.91
2022-08-08T22:20:11.477Z,99963.59
2022-08-08T22:22:19.875Z,99924.19
2022-08-08T22:24:57.386Z,99968.91
2022-08-08T22:28:00.526Z,99981.47
2022-08-08T22:30:16.323Z,99932.31
2022-08-08T22:32:58.430Z,99986.47
2022-08-08T22:36:04.270Z,99991.13
2022-08-08T22:38:17.640Z,99978.25
2022-08-08T22:40:48.207Z,99975.59
2022-08-08T22:43:19.596Z,99999.78
2022-08-08T22:45:52.570Z,99966.94
2022-08-08T22:48:22.527Z,99934.13
2022-08-08T22:50:53.531Z,99996.97
2022-08-08T22:54:32.963Z,100000.13
2022-08-08T22:56:11.585Z,99999.31
2022-08-08T22:58:44.127Z,99984.00
2022-08-08T23:02:02.215Z,99994.16
2022-08-08T23:04:08.584Z,99945.88
2022-08-08T23:06:40.546Z,99970.44
2022-08-08T23:09:10.580Z,100000.06
2022-08-08T23:12:28.731Z,99973.88
2022-08-08T23:14:29.120Z,100005.56
2022-08-08T23:16:59.626Z,99993.13
2022-08-08T23:19:31.093Z,99947.69
2022-08-08T23:22:04.107Z,99968.59
2022-08-08T23:24:36.584Z,99946.34
2022-08-08T23:27:06.175Z,99986.63
2022-08-08T23:29:36.867Z,99975.72
2022-08-08T23:32:06.714Z,100006.53
2022-08-08T23:34:40.224Z,99942.38
2022-08-08T23:37:27.190Z,99965.06
2022-08-08T23:40:15.782Z,99959.59
2022-08-08T23:42:45.173Z,99980.81
2022-08-08T23:45:16.477Z,100009.53
2022-08-08T23:49:07.763Z,99994.75
2022-08-08T23:50:33.999Z,99980.16
2022-08-08T23:53:03.533Z,99973.34
2022-08-08T23:55:38.257Z,99995.59
2022-08-08T23:58:37.866Z,99997.41
